KVPS/VPS METAR and TAF weather

Enter ICAO airport designator
Station Type Date Time Source
KVPS METAR 2019/04/25 01:56 UTC NOAA

KVPS 250156Z AUTO 00000KT 10SM OVC180 20/18 A2999 RMK AO2 SLP162 T01980181 $


Station Type Date Time Source
KVPS Decoded METAR 2019/04/25 01:56 UTC NOAA

Valparaiso / Eglin Air Force Base, FL, United States (KVPS) 30-29N 086-31W 29M
Apr 24, 2019 - 09:56 PM EDT / 2019.04.25 0156 UTC
Wind: Calm:0
Visibility: 10 mile(s):0
Sky conditions: overcast
Temperature: 67.6 F (19.8 C)
Dew Point: 64.6 F (18.1 C)
Relative Humidity: 89%
Pressure (altimeter): 29.99 in. Hg (1015 hPa)
ob: KVPS 250156Z AUTO 00000KT 10SM OVC180 20/18 A2999 RMK AO2 SLP162 T01980181
cycle: 2

Station Type Date Time Source
KVPS TAF 2019/04/25 01:24 UTC NOAA

TAF TAF KVPS 250100Z 2501/2607 14006KT 9999 FEW025 SCT130 BKN250 QNH2995INS
BECMG 2508/2509 14006KT 9999 SCT015 BKN130 BKN250 QNH2992INS
TEMPO 2509/2513 BKN015
BECMG 2512/2513 14008KT 9999 BKN015 BKN130 BKN250 QNH2993INS
BECMG 2515/2516 15010G15KT 9999 BKN020 BKN140 OVC250 QNH2992INS
BECMG 2521/2522 16013G18KT 9999 VCSH FEW005 BKN020 OVC140 QNH2989INS
BECMG 2523/2524 19010KT 8000 -SHRA VCTS SCT009 BKN017CB OVC140 QNH2987INS
TEMPO 2601/2606 4800 -TSRA BKN017CB
BECMG 2605/2606 23010KT 8000 BR VCSH BKN009 BKN120 QNH2986INS TX25/2519Z TN16/2509Z

Example: see airport list